createdAt,value
2023-02-24T00:02:08.281Z,101208.91
2023-02-24T00:04:41.798Z,101210.03
2023-02-24T00:07:13.979Z,101207.88
2023-02-24T00:09:46.748Z,101204.91
2023-02-24T00:12:19.195Z,101210.56
2023-02-24T00:14:49.728Z,101220.84
2023-02-24T00:17:20.004Z,101218.56
2023-02-24T00:19:50.072Z,101221.66
2023-02-24T00:22:20.054Z,101220.00
2023-02-24T00:24:50.035Z,101225.53
2023-02-24T00:27:20.061Z,101229.59
2023-02-24T00:29:49.912Z,101227.09
2023-02-24T00:32:19.950Z,101236.16
2023-02-24T00:34:52.520Z,101235.34
2023-02-24T00:37:27.300Z,101238.03
2023-02-24T00:40:00.751Z,101243.03
2023-02-24T00:42:30.863Z,101245.78
2023-02-24T00:45:01.056Z,101254.56
2023-02-24T00:47:31.240Z,101257.03
2023-02-24T00:50:01.201Z,101256.00
2023-02-24T00:52:31.087Z,101249.06
2023-02-24T00:55:01.499Z,101260.06
2023-02-24T00:57:32.603Z,101257.63
2023-02-24T01:00:02.867Z,101260.91
2023-02-24T01:02:34.325Z,101253.16
2023-02-24T01:05:07.410Z,101260.59
2023-02-24T01:07:37.416Z,101269.91
2023-02-24T01:10:10.883Z,101277.34
2023-02-24T01:12:51.393Z,101274.91
2023-02-24T01:15:24.494Z,101273.78
2023-02-24T01:17:55.578Z,101288.16
2023-02-24T01:20:25.665Z,101282.84
2023-02-24T01:22:58.911Z,101301.88
2023-02-24T01:25:30.625Z,101295.75
2023-02-24T01:28:00.675Z,101304.63
2023-02-24T01:30:30.655Z,101305.16
2023-02-24T01:33:01.879Z,101305.66
2023-02-24T01:35:33.818Z,101302.38
2023-02-24T01:38:07.086Z,101307.91
2023-02-24T01:40:37.510Z,101311.97
2023-02-24T01:43:10.958Z,101305.94
2023-02-24T01:45:43.827Z,101311.66
2023-02-24T01:48:14.917Z,101324.34
2023-02-24T01:50:45.146Z,101314.16
2023-02-24T01:53:15.488Z,101324.06
2023-02-24T01:56:00.480Z,101320.97
2023-02-24T01:58:33.563Z,101321.50
2023-02-24T02:01:10.841Z,101329.78
2023-02-24T02:03:44.274Z,101332.75
2023-02-24T02:06:16.683Z,101328.88
2023-02-24T02:08:47.596Z,101334.69
2023-02-24T02:11:25.715Z,101333.25
2023-02-24T02:14:04.749Z,101340.72
2023-02-24T02:16:55.367Z,101344.00
2023-02-24T02:20:18.014Z,101341.84
2023-02-24T02:23:11.844Z,101352.88
2023-02-24T02:26:04.271Z,101349.00
2023-02-24T02:29:12.032Z,101359.44
2023-02-24T02:32:09.773Z,101357.78
2023-02-24T02:35:05.825Z,101361.56
2023-02-24T02:37:54.275Z,101364.03
2023-02-24T02:40:39.755Z,101366.28
2023-02-24T02:43:12.668Z,101364.84
2023-02-24T02:45:58.104Z,101361.50
2023-02-24T02:48:40.653Z,101363.13
2023-02-24T02:51:15.402Z,101357.09
2023-02-24T02:54:12.767Z,101356.78
2023-02-24T02:59:40.460Z,101356.19
2023-02-24T03:02:15.385Z,101357.03
2023-02-24T03:05:04.270Z,101347.31
2023-02-24T03:07:39.733Z,101345.69
2023-02-24T03:10:20.132Z,101347.00
2023-02-24T03:12:57.652Z,101359.66
2023-02-24T03:15:30.468Z,101344.25
2023-02-24T03:18:52.072Z,101349.16
2023-02-24T03:21:39.243Z,101346.13
2023-02-24T03:24:10.166Z,101340.28
2023-02-24T03:26:54.196Z,101341.13
2023-02-24T03:29:42.037Z,101339.16
2023-02-24T03:32:38.804Z,101330.91
2023-02-24T03:35:21.442Z,101334.97
2023-02-24T03:37:53.378Z,101335.25
2023-02-24T03:40:25.471Z,101329.19
2023-02-24T03:43:07.587Z,101328.09
2023-02-24T03:45:40.973Z,101323.38
2023-02-24T03:48:15.216Z,101314.31
2023-02-24T03:50:48.394Z,101308.97
2023-02-24T03:53:46.712Z,101301.50
2023-02-24T03:56:25.605Z,101293.75
2023-02-24T03:59:30.211Z,101295.72
2023-02-24T04:02:26.576Z,101276.91
2023-02-24T04:05:12.856Z,101274.34
2023-02-24T04:08:03.873Z,101270.47
2023-02-24T04:10:44.046Z,101266.06
2023-02-24T04:13:49.857Z,101257.19
2023-02-24T04:16:45.534Z,101248.91
2023-02-24T04:19:21.840Z,101252.19
2023-02-24T04:21:54.994Z,101238.41
2023-02-24T04:24:33.292Z,101239.22
2023-02-24T04:27:06.651Z,101231.25
2023-02-24T04:29:52.485Z,101239.53
2023-02-24T04:32:28.606Z,101222.34
2023-02-24T04:35:11.752Z,101219.56
2023-02-24T04:37:47.611Z,101220.91
2023-02-24T04:40:24.165Z,101212.94
2023-02-24T04:42:56.357Z,101209.56
2023-02-24T04:45:30.346Z,101199.88
2023-02-24T04:48:05.237Z,101195.66
2023-02-24T04:50:40.568Z,101184.63
2023-02-24T04:53:14.915Z,101179.13
2023-02-24T04:55:50.992Z,101185.16
2023-02-24T04:58:24.068Z,101177.66
2023-02-24T05:00:55.450Z,101182.38
2023-02-24T05:03:33.208Z,101157.03
2023-02-24T05:06:03.711Z,101164.19
2023-02-24T05:08:35.381Z,101159.69
2023-02-24T05:11:06.237Z,101154.66
2023-02-24T05:13:36.812Z,101150.25
2023-02-24T05:16:10.391Z,101143.63
2023-02-24T05:18:40.820Z,101136.97
2023-02-24T05:21:33.829Z,101133.09
2023-02-24T05:24:13.351Z,101124.72
2023-02-24T05:26:43.962Z,101130.22
2023-02-24T05:29:14.703Z,101127.97
2023-02-24T05:31:45.979Z,101116.63
2023-02-24T05:34:19.430Z,101119.69
2023-02-24T05:36:52.352Z,101109.97
2023-02-24T05:39:23.697Z,101106.69
2023-02-24T05:41:57.012Z,101104.97
2023-02-24T05:44:28.978Z,101098.94
2023-02-24T05:47:01.346Z,101089.19
2023-02-24T05:49:36.412Z,101091.16
2023-02-24T05:52:11.209Z,101082.56
2023-02-24T05:54:44.647Z,101086.44
2023-02-24T05:57:19.252Z,101071.84
2023-02-24T05:59:55.410Z,101071.50
2023-02-24T06:02:29.508Z,101068.44
2023-02-24T06:05:01.036Z,101067.84
2023-02-24T06:07:36.417Z,101062.31
2023-02-24T06:10:11.756Z,101057.59
2023-02-24T06:12:42.149Z,101051.44
2023-02-24T06:15:12.989Z,101050.34
2023-02-24T06:17:43.075Z,101042.88
2023-02-24T06:20:17.992Z,101035.94
2023-02-24T06:22:48.006Z,101028.78
2023-02-24T06:25:17.951Z,101024.56
2023-02-24T06:27:48.128Z,101018.22
2023-02-24T06:30:18.049Z,101016.59
2023-02-24T06:32:47.997Z,101013.19
2023-02-24T06:35:18.914Z,101001.34
2023-02-24T06:37:50.161Z,101001.00
2023-02-24T06:40:20.156Z,100989.47
2023-02-24T06:42:57.515Z,100996.63
2023-02-24T06:45:28.461Z,100988.84
2023-02-24T06:47:58.582Z,100985.44
2023-02-24T06:50:28.506Z,100984.66
2023-02-24T06:53:02.886Z,100976.84
2023-02-24T06:55:33.198Z,100962.25
2023-02-24T06:58:07.973Z,100969.38
2023-02-24T07:00:41.058Z,100954.28
2023-02-24T07:03:21.086Z,100956.72
2023-02-24T07:05:56.365Z,100951.53
2023-02-24T07:08:29.435Z,100949.56
2023-02-24T07:11:21.456Z,100948.09
2023-02-24T07:13:52.466Z,100961.44
2023-02-24T07:16:27.200Z,100947.13
2023-02-24T07:18:59.249Z,100939.34
2023-02-24T07:21:54.880Z,100943.72
2023-02-24T07:24:35.756Z,100932.66
2023-02-24T07:27:09.385Z,100926.84
2023-02-24T07:29:40.534Z,100934.00
2023-02-24T07:32:11.738Z,100923.44
2023-02-24T07:34:44.401Z,100901.88
2023-02-24T07:37:15.355Z,100910.16
2023-02-24T07:39:45.491Z,100899.09
2023-02-24T07:42:15.983Z,100891.78
2023-02-24T07:44:48.512Z,100889.84
2023-02-24T07:47:18.760Z,100892.63
2023-02-24T07:49:48.683Z,100891.16
2023-02-24T07:52:18.707Z,100891.78
2023-02-24T07:54:48.722Z,100891.78
2023-02-24T07:57:21.052Z,100873.78
2023-02-24T07:59:52.085Z,100880.59
2023-02-24T08:02:22.562Z,100875.06
2023-02-24T08:04:53.640Z,100878.47
2023-02-24T08:07:26.782Z,100880.59
2023-02-24T08:10:25.859Z,100876.22
2023-02-24T08:12:58.418Z,100863.53
2023-02-24T08:15:36.043Z,100872.31
2023-02-24T08:18:07.765Z,100867.94
2023-02-24T08:21:04.199Z,100871.69
2023-02-24T08:23:46.822Z,100865.16
2023-02-24T08:26:17.250Z,100863.53
2023-02-24T08:28:47.384Z,100862.72
2023-02-24T08:31:20.816Z,100851.03
2023-02-24T08:33:51.257Z,100866.78
2023-02-24T08:36:24.610Z,100861.44
2023-02-24T08:39:01.904Z,100854.28
2023-02-24T08:41:47.005Z,100860.63
2023-02-24T08:44:21.035Z,100852.19
2023-02-24T08:46:52.414Z,100851.22
2023-02-24T08:49:26.987Z,100853.63
2023-02-24T08:51:57.096Z,100853.97
2023-02-24T08:54:30.098Z,100847.63
2023-02-24T08:57:20.403Z,100851.22
2023-02-24T08:59:59.797Z,100845.69
2023-02-24T09:02:32.398Z,100842.44
2023-02-24T09:05:10.488Z,100846.00
2023-02-24T09:07:43.862Z,100844.38
2023-02-24T09:10:21.848Z,100841.59
2023-02-24T09:12:55.675Z,100842.44
2023-02-24T09:15:27.696Z,100839.34
2023-02-24T09:18:09.436Z,100841.78
2023-02-24T09:20:58.106Z,100848.13
2023-02-24T09:23:48.057Z,100848.63
2023-02-24T09:26:18.371Z,100849.09
2023-02-24T09:28:51.368Z,100848.28
2023-02-24T09:31:22.340Z,100847.16
2023-02-24T09:33:56.453Z,100846.66
2023-02-24T09:36:32.622Z,100846.19
2023-02-24T09:39:03.840Z,100856.06
2023-02-24T09:42:10.358Z,100850.53
2023-02-24T09:44:47.495Z,100860.47
2023-02-24T09:47:59.372Z,100863.22
2023-02-24T09:51:02.154Z,100864.84
2023-02-24T09:53:51.375Z,100862.25
2023-02-24T09:56:27.086Z,100860.78
2023-02-24T09:59:13.777Z,100869.88
2023-02-24T10:02:04.371Z,100866.81
2023-02-24T10:04:51.512Z,100873.13
2023-02-24T10:07:40.467Z,100881.13
2023-02-24T10:10:27.823Z,100884.19
2023-02-24T10:13:16.353Z,100883.69
2023-02-24T10:15:59.853Z,100888.91
2023-02-24T10:19:13.911Z,100888.59
2023-02-24T10:22:29.609Z,100885.66
2023-02-24T10:25:23.814Z,100886.94
2023-02-24T10:28:23.041Z,100890.03
2023-02-24T10:31:12.465Z,100901.91
2023-02-24T10:33:47.541Z,100898.66
2023-02-24T10:36:21.807Z,100907.41
2023-02-24T10:38:52.975Z,100903.34
2023-02-24T10:41:30.872Z,100908.56
2023-02-24T10:44:01.500Z,100912.94
2023-02-24T10:46:50.196Z,100916.53
2023-02-24T10:49:22.431Z,100925.63
2023-02-24T10:51:55.554Z,100924.66
2023-02-24T10:54:58.476Z,100924.31
2023-02-24T10:57:50.367Z,100940.56
2023-02-24T11:00:53.308Z,100936.16
2023-02-24T11:03:38.289Z,100938.13
2023-02-24T11:06:33.038Z,100942.03
2023-02-24T11:09:21.445Z,100951.13
2023-02-24T11:12:11.167Z,100951.13
2023-02-24T11:15:14.067Z,100952.28
2023-02-24T11:20:56.947Z,100946.75
2023-02-24T11:23:33.077Z,100944.28
2023-02-24T11:26:24.655Z,100958.44
2023-02-24T11:29:32.209Z,100965.75
2023-02-24T11:32:33.713Z,100971.28
2023-02-24T11:35:40.062Z,100974.03
2023-02-24T11:38:20.029Z,100975.66
2023-02-24T11:40:58.122Z,100980.88
2023-02-24T11:43:32.428Z,100984.75
2023-02-24T11:46:28.983Z,100983.97
2023-02-24T11:49:02.189Z,100991.41
2023-02-24T11:51:39.372Z,100986.22
2023-02-24T11:54:15.373Z,101000.03
2023-02-24T11:56:49.392Z,100998.72
2023-02-24T11:59:33.082Z,100997.91
2023-02-24T12:02:15.312Z,101006.69
2023-02-24T12:05:09.130Z,101011.41
2023-02-24T12:07:43.949Z,101018.06
2023-02-24T12:10:30.298Z,101024.38
2023-02-24T12:13:32.018Z,101031.88
2023-02-24T12:16:23.661Z,101033.81
2023-02-24T12:19:25.605Z,101038.53
2023-02-24T12:22:09.910Z,101040.66
2023-02-24T12:24:42.456Z,101059.66
2023-02-24T12:27:27.764Z,101061.63
2023-02-24T12:30:50.820Z,101065.50
2023-02-24T12:33:23.881Z,101074.94
2023-02-24T12:36:05.317Z,101073.31
2023-02-24T12:38:48.491Z,101078.31
2023-02-24T12:41:44.471Z,101081.59
2023-02-24T12:44:33.773Z,101082.72
2023-02-24T12:47:17.302Z,101092.63
2023-02-24T12:53:08.635Z,101105.09
2023-02-24T12:56:15.103Z,101099.28
2023-02-24T12:58:48.899Z,101112.25
2023-02-24T13:01:27.634Z,101110.34
2023-02-24T13:50:05.055Z,101175.78
2023-02-24T13:52:53.226Z,101187.00
2023-02-24T13:55:52.144Z,101180.09
2023-02-24T13:58:34.049Z,101187.78
2023-02-24T14:01:12.011Z,101187.13
2023-02-24T14:03:45.958Z,101185.88
2023-02-24T14:06:29.598Z,101198.22
2023-02-24T14:09:07.378Z,101199.59
2023-02-24T14:11:40.136Z,101198.34
2023-02-24T14:14:20.406Z,101201.81
2023-02-24T14:16:53.535Z,101208.28
2023-02-24T14:19:23.683Z,101215.94
2023-02-24T14:22:03.815Z,101207.31
2023-02-24T14:24:33.947Z,101213.03
2023-02-24T14:27:04.630Z,101210.59
2023-02-24T14:29:44.274Z,101222.38
2023-02-24T14:32:26.082Z,101215.28
2023-02-24T14:34:57.767Z,101218.56
2023-02-24T14:37:33.371Z,101224.41
2023-02-24T14:40:08.046Z,101214.59
2023-02-24T14:42:38.680Z,101222.44
2023-02-24T14:45:20.312Z,101226.56
2023-02-24T14:47:50.176Z,101229.03
2023-02-24T14:50:26.248Z,101224.91
2023-02-24T14:53:00.315Z,101232.28
2023-02-24T14:55:41.045Z,101232.28
2023-02-24T14:58:19.712Z,101237.81
2023-02-24T15:01:39.038Z,101231.47
2023-02-24T15:04:33.697Z,101243.34
2023-02-24T15:07:07.539Z,101235.34
2023-02-24T15:09:43.583Z,101241.19
2023-02-24T15:12:16.843Z,101241.78
2023-02-24T15:14:54.056Z,101238.44
2023-02-24T15:17:25.957Z,101246.81
2023-02-24T15:19:58.987Z,101245.94
2023-02-24T15:22:41.477Z,101239.41
2023-02-24T15:25:33.764Z,101247.81
2023-02-24T15:28:29.017Z,101247.59
2023-02-24T15:31:05.686Z,101246.28
2023-02-24T15:33:42.689Z,101250.00
2023-02-24T15:36:22.719Z,101247.84
2023-02-24T15:39:00.612Z,101251.72
2023-02-24T15:41:43.849Z,101255.69
2023-02-24T15:44:33.012Z,101254.56
2023-02-24T15:47:14.976Z,101255.84
2023-02-24T15:49:45.190Z,101261.72
2023-02-24T15:52:16.121Z,101270.19
2023-02-24T15:54:46.051Z,101265.28
2023-02-24T15:57:19.035Z,101266.84
2023-02-24T15:59:49.635Z,101263.06
2023-02-24T16:02:22.428Z,101263.19
2023-02-24T16:04:54.245Z,101268.50
2023-02-24T16:07:29.433Z,101264.75
2023-02-24T16:10:03.025Z,101259.00
2023-02-24T16:12:38.597Z,101259.00
2023-02-24T16:15:12.098Z,101262.28
2023-02-24T16:17:45.270Z,101266.16
2023-02-24T16:20:29.619Z,101256.56
2023-02-24T16:23:05.505Z,101258.81
2023-02-24T16:25:45.081Z,101248.88
2023-02-24T16:28:20.880Z,101245.31
2023-02-24T16:31:09.698Z,101250.00
2023-02-24T16:33:53.690Z,101249.50
2023-02-24T16:36:30.081Z,101241.53
2023-02-24T16:39:00.603Z,101244.31
2023-02-24T16:41:32.736Z,101239.59
2023-02-24T16:44:03.065Z,101234.72
2023-02-24T16:46:39.975Z,101229.19
2023-02-24T16:49:12.730Z,101234.72
2023-02-24T16:51:43.059Z,101227.53
2023-02-24T16:54:13.711Z,101229.19
2023-02-24T16:56:44.072Z,101220.38
2023-02-24T16:59:14.408Z,101227.53
2023-02-24T17:01:45.248Z,101225.91
2023-02-24T17:04:16.747Z,101216.00
2023-02-24T17:06:46.848Z,101216.00
2023-02-24T17:09:17.915Z,101213.81
2023-02-24T17:11:47.978Z,101211.06
2023-02-24T17:14:23.034Z,101211.38
2023-02-24T17:16:53.359Z,101210.53
2023-02-24T17:19:26.604Z,101206.16
2023-02-24T17:21:56.894Z,101204.50
2023-02-24T17:24:36.337Z,101200.94
2023-02-24T17:29:52.260Z,101204.31
2023-02-24T17:32:23.848Z,101205.63
2023-02-24T17:34:54.121Z,101213.41
2023-02-24T17:37:24.976Z,101213.41
2023-02-24T17:39:55.221Z,101216.16
2023-02-24T17:42:25.789Z,101217.31
2023-02-24T17:44:56.093Z,101211.28
2023-02-24T17:47:26.419Z,101208.53
2023-02-24T17:50:15.786Z,101214.06
2023-02-24T17:52:47.152Z,101219.88
2023-02-24T17:55:17.566Z,101214.16
2023-02-24T17:57:48.479Z,101215.78
2023-02-24T18:00:19.092Z,101213.03
2023-02-24T18:02:49.493Z,101198.72
2023-02-24T18:05:20.270Z,101206.19
2023-02-24T18:07:51.392Z,101204.03
2023-02-24T18:10:21.858Z,101208.13
2023-02-24T18:12:52.195Z,101207.31
2023-02-24T18:15:22.651Z,101204.84
2023-02-24T18:17:52.864Z,101200.97
2023-02-24T18:20:23.160Z,101198.19
2023-02-24T18:22:56.477Z,101202.59
2023-02-24T18:25:27.098Z,101202.91
2023-02-24T18:27:57.341Z,101193.81
2023-02-24T18:30:27.438Z,101182.25
2023-02-24T18:32:57.670Z,101193.00
2023-02-24T18:35:28.112Z,101192.16
2023-02-24T18:38:01.053Z,101178.69
2023-02-24T18:40:32.527Z,101184.22
2023-02-24T18:43:02.736Z,101180.13
2023-02-24T18:45:35.331Z,101180.94
2023-02-24T18:48:07.147Z,101188.91
2023-02-24T18:50:38.379Z,101177.66
2023-02-24T18:53:08.565Z,101179.03
2023-02-24T18:55:39.224Z,101179.31
2023-02-24T18:58:09.358Z,101185.94
2023-02-24T19:00:39.376Z,101182.38
2023-02-24T19:03:09.570Z,101177.66
2023-02-24T19:05:39.893Z,101183.50
2023-02-24T19:08:10.037Z,101175.22
2023-02-24T19:10:42.623Z,101182.06
2023-02-24T19:13:13.720Z,101196.19
2023-02-24T19:15:44.030Z,101184.63
2023-02-24T19:18:14.377Z,101186.56
2023-02-24T19:20:45.703Z,101186.88
2023-02-24T19:23:15.375Z,101190.75
2023-02-24T19:25:46.449Z,101181.69
2023-02-24T19:28:16.142Z,101190.75
2023-02-24T19:30:46.155Z,101189.13
2023-02-24T19:33:16.239Z,101182.81
2023-02-24T19:35:46.515Z,101188.31
2023-02-24T19:38:19.531Z,101185.34
2023-02-24T19:40:49.761Z,101189.75
2023-02-24T19:43:19.838Z,101189.44
2023-02-24T19:45:49.963Z,101185.84
2023-02-24T19:48:20.320Z,101193.63
2023-02-24T19:50:50.503Z,101180.16
2023-02-24T19:53:20.670Z,101184.22
2023-02-24T19:55:52.023Z,101189.22
2023-02-24T19:58:22.099Z,101199.13
2023-02-24T20:00:52.109Z,101187.91
2023-02-24T20:03:22.620Z,101194.56
2023-02-24T20:05:52.660Z,101202.03
2023-02-24T20:08:22.554Z,101210.31
2023-02-24T20:11:04.711Z,101213.56
2023-02-24T20:13:35.599Z,101214.97
2023-02-24T20:16:10.832Z,101214.69
2023-02-24T20:18:41.601Z,101213.34
2023-02-24T20:21:13.248Z,101217.22
2023-02-24T20:23:45.177Z,101212.53
2023-02-24T20:26:19.026Z,101213.66
2023-02-24T20:28:51.847Z,101220.81
2023-02-24T20:31:24.656Z,101222.75
2023-02-24T20:33:56.452Z,101222.47
2023-02-24T20:36:29.660Z,101230.72
2023-02-24T20:39:01.845Z,101230.81
2023-02-24T20:41:33.147Z,101231.66
2023-02-24T20:44:02.816Z,101234.91
2023-02-24T20:46:34.867Z,101235.22
2023-02-24T20:49:09.769Z,101238.50
2023-02-24T20:51:40.448Z,101241.25
2023-02-24T20:54:13.587Z,101241.34
2023-02-24T20:56:45.799Z,101236.84
2023-02-24T20:59:22.559Z,101239.09
2023-02-24T21:01:53.425Z,101236.06
2023-02-24T21:04:24.780Z,101247.97
2023-02-24T21:06:56.804Z,101250.22
2023-02-24T21:09:28.744Z,101244.09
2023-02-24T21:11:58.881Z,101251.84
2023-02-24T21:14:28.729Z,101246.97
2023-02-24T21:16:59.083Z,101257.38
2023-02-24T21:22:14.951Z,101258.59
2023-02-24T21:24:45.206Z,101259.94
2023-02-24T21:27:15.518Z,101266.50
2023-02-24T21:29:47.406Z,101264.09
2023-02-24T21:32:17.622Z,101269.09
2023-02-24T21:34:48.340Z,101278.50
2023-02-24T21:37:19.477Z,101279.81
2023-02-24T21:39:49.586Z,101284.63
2023-02-24T21:42:19.532Z,101287.09
2023-02-24T21:44:53.225Z,101296.16
2023-02-24T21:47:23.254Z,101295.03
2023-02-24T21:49:53.307Z,101299.53
2023-02-24T21:52:23.332Z,101305.88
2023-02-24T21:54:53.202Z,101314.16
2023-02-24T21:57:23.277Z,101318.75
2023-02-24T21:59:53.210Z,101327.41
2023-02-24T22:02:24.827Z,101323.81
2023-02-24T22:04:54.956Z,101322.50
2023-02-24T22:07:24.800Z,101329.06
2023-02-24T22:09:54.941Z,101331.59
2023-02-24T22:12:25.320Z,101334.56
2023-02-24T22:14:55.475Z,101335.97
2023-02-24T22:17:25.562Z,101336.81
2023-02-24T22:19:55.525Z,101346.50
2023-02-24T22:22:26.217Z,101340.69
2023-02-24T22:24:57.107Z,101337.72
2023-02-24T22:27:27.473Z,101362.75
2023-02-24T22:29:58.308Z,101370.81
2023-02-24T22:32:29.267Z,101363.34
2023-02-24T22:34:59.912Z,101366.41
2023-02-24T22:37:30.107Z,101377.44
2023-02-24T22:40:00.295Z,101388.47
2023-02-24T22:42:48.298Z,101387.13
2023-02-24T22:45:19.868Z,101397.03
2023-02-24T22:47:49.967Z,101398.66
2023-02-24T22:50:20.119Z,101405.03
2023-02-24T22:52:51.435Z,101407.25
2023-02-24T22:55:22.606Z,101413.56
2023-02-24T22:57:52.717Z,101420.19
2023-02-24T23:00:25.511Z,101436.53
2023-02-24T23:02:55.861Z,101436.00
2023-02-24T23:05:25.721Z,101438.50
2023-02-24T23:07:56.881Z,101442.34
2023-02-24T23:10:26.957Z,101456.75
2023-02-24T23:12:57.573Z,101458.69
2023-02-24T23:15:27.658Z,101464.78
2023-02-24T23:17:57.838Z,101467.56
2023-02-24T23:20:28.029Z,101469.72
2023-02-24T23:22:58.119Z,101468.88
2023-02-24T23:25:28.303Z,101482.66
2023-02-24T23:27:58.396Z,101484.00
2023-02-24T23:30:28.602Z,101490.72
2023-02-24T23:32:59.464Z,101493.16
2023-02-24T23:35:29.738Z,101496.25
2023-02-24T23:38:00.149Z,101504.28
2023-02-24T23:40:35.920Z,101504.56
2023-02-24T23:43:12.236Z,101504.56
2023-02-24T23:45:44.550Z,101506.00
2023-02-24T23:48:16.732Z,101514.03
2023-02-24T23:50:48.102Z,101517.38
2023-02-24T23:53:17.712Z,101519.25
2023-02-24T23:55:47.527Z,101534.13
2023-02-24T23:58:18.838Z,101533.34
